Time;durP1;ratioP1;P1;durP2;ratioP2;P2;SDS_P1;SDS_P2;PMS_P1;PMS_P2;Temp;Humidity;BMP_temperature;BMP_pressure;BME280_temperature;BME280_humidity;BME280_pressure;Samples;Min_cycle;Max_cycle;Signal;HPM_P1;HPM_P2
2021/06/01 04:00:33;;;;;;;3.40;2.53;;;8.10;96.30;;;;;;5886202;23;21192;-75
2021/06/01 04:03:00;;;;;;;5.23;2.77;;;8.30;96.30;;;;;;4929279;29;20762;-75
2021/06/01 04:05:25;;;;;;;7.13;2.30;;;8.70;96.30;;;;;;4916396;29;20192;-75
2021/06/01 04:07:51;;;;;;;4.23;2.80;;;9.10;96.30;;;;;;4915911;29;20405;-75
2021/06/01 04:10:17;;;;;;;4.73;2.10;;;9.60;96.30;;;;;;4916416;29;20185;-75
2021/06/01 04:12:43;;;;;;;3.83;2.50;;;10.00;96.30;;;;;;4916539;29;20177;-75
2021/06/01 04:15:09;;;;;;;4.90;2.50;;;10.00;96.30;;;;;;4916812;29;20179;-74
2021/06/01 04:17:34;;;;;;;2.83;2.50;;;11.10;96.30;;;;;;4916236;29;20172;-74
2021/06/01 04:20:01;;;;;;;2.23;2.03;;;11.10;96.30;;;;;;4916567;29;20836;-73
2021/06/01 04:22:26;;;;;;;2.33;2.00;;;11.10;96.30;;;;;;4916275;29;20188;-74
2021/06/01 04:24:52;;;;;;;5.97;4.40;;;11.60;96.30;;;;;;4916432;29;20476;-73
2021/06/01 04:27:17;;;;;;;4.13;3.73;;;11.90;96.30;;;;;;4915940;29;20251;-74
2021/06/01 04:29:43;;;;;;;6.90;6.20;;;12.40;94.20;;;;;;4916434;29;20184;-74
2021/06/01 04:32:09;;;;;;;6.53;4.10;;;12.70;92.20;;;;;;4915997;29;20669;-74
2021/06/01 04:34:34;;;;;;;5.10;2.83;;;12.80;91.60;;;;;;4916312;29;20172;-74
2021/06/01 04:37:00;;;;;;;5.53;2.53;;;13.00;91.60;;;;;;4915536;29;20262;-74
2021/06/01 04:39:25;;;;;;;3.40;2.33;;;13.20;90.60;;;;;;4916158;29;20172;-74
2021/06/01 04:41:51;;;;;;;2.67;2.47;;;13.70;89.40;;;;;;4934942;29;20763;-74
2021/06/01 04:44:16;;;;;;;2.60;2.17;;;14.00;88.20;;;;;;4939882;29;20230;-75
2021/06/01 04:46:42;;;;;;;3.10;2.53;;;14.50;86.00;;;;;;4934037;29;20534;-75
2021/06/01 04:49:07;;;;;;;3.07;2.00;;;14.30;87.60;;;;;;4935098;29;20203;-75
2021/06/01 04:51:33;;;;;;;2.50;2.30;;;14.90;85.40;;;;;;4934905;29;20202;-74
2021/06/01 04:53:59;;;;;;;3.50;2.57;;;14.60;86.20;;;;;;4934892;29;20184;-75
2021/06/01 04:56:26;;;;;;;2.53;2.10;;;15.00;84.50;;;;;;4934706;29;20207;-75
2021/06/01 04:58:52;;;;;;;6.43;2.53;;;15.50;83.90;;;;;;4935033;29;20423;-75
2021/06/01 05:01:17;;;;;;;3.57;2.70;;;15.80;82.80;;;;;;4934815;29;20941;-75
2021/06/01 05:03:43;;;;;;;3.30;2.47;;;16.30;81.40;;;;;;4935050;29;20551;-76
2021/06/01 05:06:09;;;;;;;3.40;2.20;;;15.90;81.60;;;;;;4925021;29;20708;-77
2021/06/01 05:08:35;;;;;;;4.33;2.40;;;15.90;82.20;;;;;;4917806;29;20549;-77
2021/06/01 05:11:01;;;;;;;3.77;2.40;;;16.80;80.70;;;;;;4918597;29;20440;-76
2021/06/01 05:13:27;;;;;;;4.00;2.60;;;17.00;80.10;;;;;;4919908;29;20416;-76
2021/06/01 05:15:53;;;;;;;2.80;2.10;;;17.30;78.60;;;;;;4919758;29;20488;-77
2021/06/01 05:18:20;;;;;;;2.83;2.57;;;18.00;76.70;;;;;;4919181;29;20178;-77
2021/06/01 05:20:46;;;;;;;6.60;2.30;;;17.60;77.60;;;;;;4919618;29;20439;-76
2021/06/01 05:23:13;;;;;;;2.50;2.30;;;17.40;78.30;;;;;;4918503;29;20931;-76
2021/06/01 05:25:40;;;;;;;2.53;2.30;;;17.50;77.20;;;;;;4933257;29;20431;-76
2021/06/01 05:28:05;;;;;;;2.63;2.20;;;17.50;77.50;;;;;;4937913;29;20415;-76
2021/06/01 05:33:34;;;;;;;3.00;2.70;;;17.60;78.00;;;;;;4938781;29;20191;-76
2021/06/01 05:35:57;;;;;;;2.50;2.30;;;18.60;75.50;;;;;;4937782;29;20458;-77
2021/06/01 05:38:30;;;;;;;3.60;2.30;;;18.30;75.80;;;;;;4937266;29;20422;-77
2021/06/01 05:40:59;;;;;;;3.93;2.40;;;19.20;74.40;;;;;;4937276;29;20601;-78
2021/06/01 05:43:25;;;;;;;5.00;2.53;;;19.60;73.10;;;;;;4938369;29;20413;-77
2021/06/01 05:45:51;;;;;;;3.67;2.47;;;19.30;75.10;;;;;;4942022;29;20459;-79
2021/06/01 05:48:17;;;;;;;4.23;2.53;;;20.30;72.30;;;;;;4940983;29;20192;-77
2021/06/01 05:50:43;;;;;;;3.30;2.70;;;20.40;70.20;;;;;;4938018;29;20439;-76
2021/06/01 05:53:10;;;;;;;7.73;3.53;;;19.60;72.70;;;;;;4938185;29;20486;-77
2021/06/01 05:55:37;;;;;;;3.60;2.50;;;20.00;72.10;;;;;;4937112;29;20467;-76
2021/06/01 05:58:04;;;;;;;2.67;2.40;;;20.50;71.00;;;;;;4935272;29;20431;-77
2021/06/01 06:00:30;;;;;;;5.67;2.97;;;21.50;68.50;;;;;;4937389;29;20898;-77
2021/06/01 06:02:57;;;;;;;4.83;2.73;;;21.60;68.40;;;;;;4932894;29;20443;-78
2021/06/01 06:05:23;;;;;;;4.70;1.93;;;21.10;68.80;;;;;;4932198;29;20443;-78
2021/06/01 06:07:49;;;;;;;6.40;2.93;;;21.60;67.90;;;;;;4935855;29;20465;-78
2021/06/01 06:10:14;;;;;;;3.80;3.20;;;22.00;67.50;;;;;;4936255;29;20179;-77
2021/06/01 06:12:40;;;;;;;5.23;2.90;;;22.20;66.20;;;;;;4936406;29;20487;-77
2021/06/01 06:15:10;;;;;;;7.20;3.00;;;22.70;65.30;;;;;;4934830;29;20251;-76
2021/06/01 06:17:46;;;;;;;3.80;2.80;;;22.60;66.00;;;;;;4936855;29;20190;-77
2021/06/01 06:20:13;;;;;;;6.93;2.20;;;23.40;64.70;;;;;;4935647;29;20831;-76
2021/06/01 06:22:39;;;;;;;5.50;2.17;;;23.30;64.80;;;;;;4936079;29;20466;-76
2021/06/01 06:25:10;;;;;;;3.00;2.37;;;23.20;65.40;;;;;;4936597;29;20440;-77
2021/06/01 06:27:37;;;;;;;3.93;2.93;;;23.70;63.80;;;;;;4934383;29;20426;-76
2021/06/01 06:30:05;;;;;;;6.80;2.60;;;23.10;65.30;;;;;;4935983;29;20487;-77
2021/06/01 06:32:30;;;;;;;2.43;2.23;;;24.10;63.40;;;;;;4934288;29;20442;-77
2021/06/01 06:34:56;;;;;;;6.03;2.63;;;24.50;62.60;;;;;;4936274;29;20473;-76
2021/06/01 06:37:22;;;;;;;4.37;2.30;;;23.60;64.40;;;;;;4934752;29;20727;-76
2021/06/01 06:39:48;;;;;;;3.20;2.90;;;23.20;65.90;;;;;;4934976;29;20691;-77
2021/06/01 06:42:14;;;;;;;4.23;2.70;;;23.50;66.30;;;;;;4936419;29;20600;-77
2021/06/01 06:44:42;;;;;;;4.50;2.53;;;24.40;65.00;;;;;;4933901;29;20502;-77
2021/06/01 06:49:38;;;;;;;3.07;2.23;;;24.90;61.00;;;;;;4940617;29;20442;-78
2021/06/01 06:52:08;;;;;;;3.80;3.00;;;24.40;66.40;;;;;;4935866;29;20443;-79
2021/06/01 06:54:33;;;;;;;3.20;2.60;;;25.00;63.20;;;;;;4935652;29;20411;-80
2021/06/01 06:56:59;;;;;;;3.80;2.47;;;24.90;61.60;;;;;;4934615;29;20462;-78
2021/06/01 06:59:24;;;;;;;2.93;2.63;;;25.70;62.70;;;;;;4935788;29;20238;-70
2021/06/01 07:01:50;;;;;;;6.13;2.73;;;25.40;62.50;;;;;;4934117;29;20223;-79
2021/06/01 07:04:15;;;;;;;6.03;2.87;;;24.90;62.30;;;;;;4931052;29;20203;-79
2021/06/01 07:06:41;;;;;;;3.77;2.63;;;24.80;64.30;;;;;;4931762;29;20176;-78
2021/06/01 07:09:07;;;;;;;3.13;2.43;;;25.40;63.20;;;;;;4934316;29;20628;-81
2021/06/01 07:11:34;;;;;;;11.23;2.30;;;25.60;61.40;;;;;;4935107;29;20218;-78
2021/06/01 07:14:09;;;;;;;3.87;2.40;;;25.80;60.60;;;;;;4933905;29;20451;-79
2021/06/01 07:16:35;;;;;;;4.40;2.57;;;25.10;62.10;;;;;;4933904;29;20453;-81
2021/06/01 07:19:00;;;;;;;5.00;2.77;;;25.00;60.60;;;;;;4935377;29;21072;-80
2021/06/01 07:21:26;;;;;;;2.40;2.20;;;25.50;61.20;;;;;;4935397;29;20199;-80
2021/06/01 07:23:52;;;;;;;2.40;2.20;;;25.80;58.30;;;;;;4935999;29;20210;-81
2021/06/01 07:26:17;;;;;;;3.77;2.07;;;25.70;61.90;;;;;;4934016;29;20651;-80
2021/06/01 07:28:43;;;;;;;3.63;2.30;;;25.60;60.10;;;;;;4936061;29;20701;-80
2021/06/01 07:31:13;;;;;;;7.50;2.60;;;25.00;58.30;;;;;;4934188;29;20262;-80
2021/06/01 07:33:39;;;;;;;2.50;1.90;;;24.60;62.10;;;;;;4935971;29;20658;-80
2021/06/01 07:36:05;;;;;;;2.00;1.80;;;25.00;58.80;;;;;;4934823;29;20467;-79
2021/06/01 07:38:30;;;;;;;3.63;1.70;;;25.40;56.40;;;;;;4934502;29;20175;-80
2021/06/01 07:40:56;;;;;;;2.70;2.00;;;25.40;59.20;;;;;;4935840;29;20278;-81
2021/06/01 07:43:22;;;;;;;7.27;2.47;;;24.50;57.70;;;;;;4929890;29;20267;-80
2021/06/01 07:45:47;;;;;;;3.03;2.00;;;25.20;60.10;;;;;;4915751;29;20695;-80
2021/06/01 07:48:13;;;;;;;5.40;2.27;;;25.20;58.60;;;;;;4915670;29;20278;-80
2021/06/01 07:50:38;;;;;;;6.37;2.37;;;24.30;58.70;;;;;;4929980;29;20219;-80
2021/06/01 07:53:04;;;;;;;2.70;2.03;;;;;;;;;;4936548;29;20540;-79
2021/06/01 07:55:32;;;;;;;3.60;2.23;;;25.00;59.20;;;;;;4935786;29;20214;-79
2021/06/01 07:57:57;;;;;;;5.37;1.93;;;25.60;61.40;;;;;;4934059;29;20175;-79
2021/06/01 08:00:23;;;;;;;7.17;2.10;;;26.20;60.70;;;;;;4935418;29;20419;-81
2021/06/01 08:02:49;;;;;;;2.43;2.07;;;26.40;58.20;;;;;;4935718;29;20234;-79
2021/06/01 08:05:19;;;;;;;6.87;1.90;;;25.50;57.20;;;;;;4935754;29;20191;-80
2021/06/01 08:07:47;;;;;;;7.57;1.50;;;;;;;;;;4935364;29;20411;-80
2021/06/01 08:10:15;;;;;;;3.10;1.33;;;25.50;55.30;;;;;;4936375;29;20423;-80
2021/06/01 08:12:41;;;;;;;2.67;1.17;;;24.50;52.10;;;;;;4935946;29;20434;-80
2021/06/01 08:15:07;;;;;;;2.50;1.13;;;24.00;52.10;;;;;;4935933;29;20407;-79
2021/06/01 08:17:33;;;;;;;5.03;1.40;;;24.00;57.50;;;;;;4933894;29;20211;-79
2021/06/01 08:20:08;;;;;;;3.83;1.60;;;24.50;55.70;;;;;;4918812;29;20920;-80
2021/06/01 08:22:34;;;;;;;2.50;1.30;;;24.20;53.60;;;;;;4935027;29;20466;-79
2021/06/01 08:25:00;;;;;;;2.30;1.73;;;23.80;58.40;;;;;;4934930;29;20447;-79
2021/06/01 08:27:27;;;;;;;3.83;1.60;;;24.20;57.00;;;;;;4934772;29;20191;-80
2021/06/01 08:29:53;;;;;;;2.60;1.60;;;24.10;56.00;;;;;;4935518;29;20176;-79
2021/06/01 08:32:18;;;;;;;6.57;1.90;;;24.30;59.30;;;;;;4934709;29;20816;-78
2021/06/01 08:34:44;;;;;;;6.43;2.13;;;24.00;54.70;;;;;;4934853;29;20637;-79
2021/06/01 08:37:10;;;;;;;2.93;1.80;;;24.70;57.10;;;;;;4932980;29;20266;-78
2021/06/01 08:39:36;;;;;;;3.50;1.60;;;24.70;57.20;;;;;;4934820;29;20176;-80
2021/06/01 08:42:01;;;;;;;2.93;1.70;;;23.60;58.40;;;;;;4933320;29;20450;-80
2021/06/01 08:44:27;;;;;;;3.40;1.80;;;23.20;60.80;;;;;;4933683;29;20295;-76
2021/06/01 08:46:54;;;;;;;5.00;3.03;;;22.90;63.00;;;;;;4934684;29;20183;-79
2021/06/01 08:49:20;;;;;;;6.33;2.00;;;23.50;66.60;;;;;;4935345;29;20258;-79
2021/06/01 08:51:47;;;;;;;3.70;2.23;;;24.30;62.30;;;;;;4934919;29;20513;-79
2021/06/01 08:54:13;;;;;;;14.30;1.90;;;23.90;56.50;;;;;;4935347;29;20908;-79
2021/06/01 08:56:39;;;;;;;6.00;1.80;;;24.50;57.90;;;;;;4934639;29;20462;-79
2021/06/01 08:59:04;;;;;;;3.33;1.90;;;24.30;58.50;;;;;;4933536;29;20183;-78
2021/06/01 09:01:30;;;;;;;2.20;1.67;;;23.70;62.40;;;;;;4944575;29;20210;-79
2021/06/01 09:04:04;;;;;;;5.20;2.27;;;22.80;58.60;;;;;;4934731;29;20734;-78
2021/06/01 09:22:32;;;;;;;3.30;2.03;;;22.10;60.70;;;;;;4921726;29;20503;-79
2021/06/01 09:25:05;;;;;;;3.10;1.90;;;22.70;63.20;;;;;;4935977;29;20415;-79
2021/06/01 09:27:54;;;;;;;7.87;2.07;;;23.10;62.60;;;;;;4936704;29;20411;-80
2021/06/01 09:30:44;;;;;;;5.80;2.10;;;23.50;64.10;;;;;;4935897;29;20433;-79
2021/06/01 09:33:31;;;;;;;2.30;1.87;;;24.20;64.90;;;;;;4932485;29;20423;-80
2021/06/01 09:36:02;;;;;;;2.07;1.57;;;24.20;57.90;;;;;;4940490;29;20454;-80
2021/06/01 09:38:40;;;;;;;3.47;2.30;;;22.40;60.20;;;;;;4939313;29;20432;-80
2021/06/01 09:41:15;;;;;;;3.07;2.03;;;22.40;62.00;;;;;;4939249;29;20443;-79
2021/06/01 09:43:53;;;;;;;3.90;2.03;;;22.30;63.00;;;;;;4939282;29;20419;-79
2021/06/01 09:46:34;;;;;;;3.10;1.70;;;22.30;61.20;;;;;;4936989;29;20660;-79
2021/06/01 09:49:15;;;;;;;4.23;2.20;;;23.50;65.20;;;;;;4939190;29;20475;-79
2021/06/01 09:51:46;;;;;;;4.60;2.20;;;24.30;66.00;;;;;;4938959;29;20446;-79
2021/06/01 09:54:37;;;;;;;2.73;2.37;;;23.10;61.50;;;;;;4941737;29;20411;-79
2021/06/01 09:57:27;;;;;;;10.23;2.20;;;21.30;62.20;;;;;;4943399;29;20510;-79
2021/06/01 10:00:16;;;;;;;2.90;2.00;;;21.70;70.10;;;;;;4942517;29;20931;-79
2021/06/01 10:02:47;;;;;;;3.77;2.30;;;21.90;62.30;;;;;;4941468;29;20404;-78
2021/06/01 10:05:14;;;;;;;3.27;2.20;;;21.60;64.30;;;;;;4939367;29;20778;-78
2021/06/01 10:07:41;;;;;;;2.87;2.00;;;21.80;66.40;;;;;;4939155;29;20408;-78
2021/06/01 10:10:22;;;;;;;4.20;2.00;;;21.80;69.40;;;;;;4939088;29;20498;-78
2021/06/01 10:12:50;;;;;;;2.80;2.10;;;22.30;70.10;;;;;;4937397;29;20450;-79
2021/06/01 10:15:18;;;;;;;5.27;2.30;;;21.90;64.70;;;;;;4937832;29;21028;-77
2021/06/01 10:17:44;;;;;;;2.63;2.10;;;21.50;64.40;;;;;;4935884;29;20494;-78
2021/06/01 10:20:11;;;;;;;6.70;2.43;;;22.00;66.90;;;;;;4937343;29;20415;-77
2021/06/01 10:22:37;;;;;;;5.57;2.13;;;22.20;64.40;;;;;;4937149;29;20543;-79
2021/06/01 10:25:04;;;;;;;4.07;2.23;;;22.30;67.40;;;;;;4936630;29;20427;-81
2021/06/01 10:27:30;;;;;;;5.30;2.17;;;;;;;;;;4938581;29;20447;-79
2021/06/01 10:29:55;;;;;;;3.70;1.77;;;21.40;66.80;;;;;;4938631;29;20463;-79
2021/06/01 10:32:22;;;;;;;4.00;2.20;;;21.30;66.40;;;;;;4938684;29;20443;-80
2021/06/01 10:34:48;;;;;;;6.63;2.63;;;20.90;64.50;;;;;;4938214;29;20176;-79
2021/06/01 10:43:20;;;;;;;5.10;2.27;;;22.00;69.90;;;;;;4936512;29;20446;-80
2021/06/01 10:49:03;;;;;;;6.40;2.53;;;21.50;68.10;;;;;;4938967;29;20908;-79
2021/06/01 10:51:52;;;;;;;3.20;1.90;;;21.60;67.00;;;;;;4936906;29;20451;-79
2021/06/01 10:54:38;;;;;;;2.80;2.03;;;21.10;65.10;;;;;;4936309;29;20431;-79
2021/06/01 10:57:04;;;;;;;2.97;1.77;;;21.20;66.10;;;;;;4937197;29;20837;-81
2021/06/01 10:59:57;;;;;;;3.60;2.20;;;21.30;66.10;;;;;;4938075;29;20507;-80
2021/06/01 11:02:24;;;;;;;3.73;2.10;;;21.20;63.40;;;;;;4924077;29;20455;-79
2021/06/01 11:05:05;;;;;;;3.00;2.27;;;21.70;68.30;;;;;;4937166;29;20443;-79
2021/06/01 11:08:04;;;;;;;4.00;2.10;;;21.90;67.20;;;;;;4937112;29;20922;-80
2021/06/01 11:10:37;;;;;;;5.47;2.40;;;21.60;67.40;;;;;;4918405;29;20493;-79
2021/06/01 11:13:02;;;;;;;2.87;2.03;;;21.30;66.80;;;;;;4920098;29;20507;-78
2021/06/01 11:15:30;;;;;;;8.27;2.37;;;20.90;67.40;;;;;;4935453;29;20586;-79
2021/06/01 11:18:15;;;;;;;4.70;2.00;;;20.90;69.00;;;;;;4935060;29;20218;-78
2021/06/01 11:21:41;;;;;;;8.57;2.40;;;20.90;68.90;;;;;;4935378;29;21014;-79
2021/06/01 11:35:10;;;;;;;3.47;2.00;;;23.00;71.80;;;;;;4933560;29;20435;-79
2021/06/01 11:37:41;;;;;;;4.00;2.30;;;23.70;67.60;;;;;;4933895;29;20471;-80
2021/06/01 11:43:14;;;;;;;2.80;2.40;;;23.70;66.60;;;;;;4933177;29;20411;-79
2021/06/01 11:51:27;;;;;;;5.40;2.83;;;23.20;68.40;;;;;;4928811;29;20529;-81
2021/06/01 11:53:54;;;;;;;11.50;2.53;;;23.10;67.90;;;;;;4935490;29;20505;-81
2021/06/01 12:20:46;;;;;;;4.37;2.70;;;22.30;68.40;;;;;;4936510;29;20439;-79
2021/06/01 12:23:27;;;;;;;5.00;2.70;;;22.00;66.80;;;;;;4937030;29;20959;-80
2021/06/01 12:26:27;;;;;;;5.23;2.60;;;21.70;67.30;;;;;;4936194;29;20191;-79
2021/06/01 12:31:51;;;;;;;9.40;3.00;;;22.10;69.00;;;;;;4945332;29;20446;-82
2021/06/01 12:34:24;;;;;;;4.60;2.73;;;23.00;67.90;;;;;;4955241;29;20431;-81
2021/06/01 13:08:18;;;;;;;6.30;2.20;;;;;;;;;;4933499;29;20410;-80
2021/06/01 13:14:02;;;;;;;8.23;2.70;;;24.10;67.10;;;;;;4939819;29;20446;-80
2021/06/01 13:19:48;;;;;;;4.60;3.40;;;23.30;64.30;;;;;;4927499;29;20444;-79
2021/06/01 13:22:34;;;;;;;4.00;2.80;;;22.60;67.80;;;;;;4915927;29;20441;-79
2021/06/01 13:31:09;;;;;;;4.57;2.50;;;23.20;64.80;;;;;;4930706;29;20443;-80
2021/06/01 13:46:45;;;;;;;3.10;2.80;;;23.90;65.50;;;;;;4939550;29;20434;-81
2021/06/01 13:49:23;;;;;;;7.50;3.00;;;24.30;72.30;;;;;;4942678;29;20496;-79
2021/06/01 14:00:35;;;;;;;2.93;2.40;;;23.60;70.20;;;;;;4938223;29;20787;-81
2021/06/01 14:21:12;;;;;;;3.67;2.20;;;;;;;;;;4937547;29;20922;-78
2021/06/01 14:37:32;;;;;;;6.83;2.70;;;24.30;67.60;;;;;;4936646;29;20453;-80
2021/06/01 14:55:01;;;;;;;12.60;3.53;;;24.00;66.00;;;;;;4937238;29;20440;-83
2021/06/01 15:03:52;;;;;;;3.90;2.60;;;23.40;66.70;;;;;;4936400;29;20502;-81
2021/06/01 15:07:24;;;;;;;4.27;2.80;;;23.20;62.90;;;;;;4938989;29;20444;-79
2021/06/01 15:32:05;;;;;;;3.83;2.40;;;;;;;;;;4938456;29;20496;-79
2021/06/01 15:48:46;;;;;;;8.20;3.17;;;23.30;69.70;;;;;;4937172;29;20924;-79
2021/06/01 16:13:15;;;;;;;4.47;2.40;;;22.00;72.40;;;;;;4925051;29;20434;-80
2021/06/01 16:43:32;;;;;;;6.63;3.17;;;22.70;67.60;;;;;;4941835;29;20499;-80
2021/06/01 17:08:02;;;;;;;3.47;2.30;;;21.70;73.40;;;;;;4939613;29;20506;-81
2021/06/01 17:13:14;;;;;;;7.17;2.10;;;21.50;72.20;;;;;;4936393;29;20495;-80
2021/06/01 17:15:41;;;;;;;5.37;2.70;;;;;;;;;;4932895;29;20789;-80
2021/06/01 17:18:21;;;;;;;4.40;2.50;;;21.40;70.50;;;;;;4934953;29;20479;-80
2021/06/01 17:36:59;;;;;;;7.10;2.10;;;20.80;76.20;;;;;;4935989;29;20526;-80
2021/06/01 17:39:25;;;;;;;3.60;2.07;;;20.70;73.70;;;;;;4935383;29;20495;-80
2021/06/01 17:41:53;;;;;;;4.97;2.47;;;20.60;75.60;;;;;;4936697;29;20912;-80
2021/06/01 17:44:23;;;;;;;2.57;2.00;;;20.40;74.60;;;;;;4936847;29;20179;-80
2021/06/01 17:46:49;;;;;;;4.83;2.47;;;20.50;74.40;;;;;;4935020;29;20590;-79
2021/06/01 17:49:21;;;;;;;2.63;2.20;;;20.40;75.70;;;;;;4937202;29;20430;-80
2021/06/01 17:51:52;;;;;;;3.50;2.17;;;20.20;76.30;;;;;;4936208;29;20470;-80
2021/06/01 17:54:25;;;;;;;2.80;2.40;;;20.00;81.00;;;;;;4935623;29;20860;-80
2021/06/01 17:56:50;;;;;;;2.67;2.23;;;19.80;82.10;;;;;;4936820;29;20481;-81
2021/06/01 17:59:18;;;;;;;6.50;2.80;;;19.40;80.80;;;;;;4938084;29;20447;-82
2021/06/01 18:01:47;;;;;;;2.80;1.93;;;19.10;81.10;;;;;;4939927;29;20216;-81
2021/06/01 18:04:15;;;;;;;2.47;2.03;;;18.80;83.10;;;;;;4939234;29;20415;-81
2021/06/01 18:06:45;;;;;;;2.17;2.00;;;18.50;83.70;;;;;;4938737;29;20454;-80
2021/06/01 18:09:24;;;;;;;2.23;2.03;;;;;;;;;;4939462;29;20427;-80
2021/06/01 18:12:28;;;;;;;2.97;2.60;;;18.00;88.80;;;;;;4937730;29;20422;-81
2021/06/01 18:35:16;;;;;;;3.20;2.37;;;16.40;94.40;;;;;;4940938;29;20418;-78
2021/06/01 18:37:46;;;;;;;2.60;2.40;;;16.30;93.80;;;;;;4937527;29;20570;-78
2021/06/01 19:05:56;;;;;;;3.20;2.90;;;15.40;96.30;;;;;;4938891;29;20423;-78
2021/06/01 19:24:35;;;;;;;3.53;2.57;;;14.30;96.30;;;;;;4940012;29;20396;-79
2021/06/01 19:49:59;;;;;;;2.97;2.37;;;13.70;96.30;;;;;;4939338;29;20419;-79
2021/06/01 19:52:21;;;;;;;6.07;3.47;;;13.60;96.30;;;;;;4938524;29;20423;-79
2021/06/01 19:54:50;;;;;;;8.87;3.83;;;13.60;96.30;;;;;;4938114;29;20423;-78
2021/06/01 19:57:18;;;;;;;3.50;3.13;;;13.60;96.30;;;;;;4937158;29;20475;-78
2021/06/01 19:59:45;;;;;;;3.33;3.03;;;13.40;96.30;;;;;;4936777;29;20426;-78
2021/06/01 20:02:29;;;;;;;3.70;3.07;;;13.30;96.30;;;;;;4936757;29;20514;-78
2021/06/01 20:04:57;;;;;;;4.90;3.83;;;13.30;96.30;;;;;;4936139;29;20415;-78
2021/06/01 20:07:25;;;;;;;4.17;3.43;;;13.40;96.30;;;;;;4937705;29;20450;-78
2021/06/01 20:09:50;;;;;;;4.50;3.37;;;13.40;96.30;;;;;;4938597;29;20411;-78
2021/06/01 20:12:17;;;;;;;7.63;3.57;;;13.40;96.30;;;;;;4937452;29;20437;-78
2021/06/01 20:14:43;;;;;;;5.87;3.53;;;13.40;96.30;;;;;;4937110;29;20194;-78
2021/06/01 20:17:32;;;;;;;4.70;3.50;;;13.50;96.30;;;;;;4936705;29;20479;-78
2021/06/01 20:20:03;;;;;;;3.80;3.33;;;13.60;96.30;;;;;;4936026;29;20907;-78
2021/06/01 20:22:30;;;;;;;5.10;3.00;;;13.50;96.30;;;;;;4936516;29;20892;-78
2021/06/01 20:25:00;;;;;;;4.47;3.17;;;13.60;96.30;;;;;;4951942;29;20427;-78
2021/06/01 20:27:26;;;;;;;7.63;3.60;;;13.70;96.30;;;;;;4935302;29;20459;-78
2021/06/01 20:29:56;;;;;;;5.50;3.00;;;13.80;96.30;;;;;;4936376;29;20983;-78
2021/06/01 20:35:16;;;;;;;4.90;3.67;;;13.90;96.30;;;;;;4936907;29;20868;-78
2021/06/01 20:37:43;;;;;;;5.63;3.13;;;14.00;96.30;;;;;;4936850;29;20463;-78
2021/06/01 20:40:14;;;;;;;3.60;2.90;;;14.00;96.30;;;;;;4937328;29;20419;-78
2021/06/01 20:42:42;;;;;;;4.23;2.90;;;14.00;96.30;;;;;;4935938;29;20418;-78
2021/06/01 20:45:09;;;;;;;6.80;3.27;;;14.10;96.30;;;;;;4935571;29;20438;-78
2021/06/01 20:47:35;;;;;;;3.10;2.70;;;14.10;96.30;;;;;;4936209;29;20446;-78
2021/06/01 20:50:01;;;;;;;4.83;3.37;;;14.10;96.30;;;;;;4937120;29;20552;-79
2021/06/01 20:52:28;;;;;;;4.73;3.10;;;14.00;96.30;;;;;;4935265;29;20427;-78
2021/06/01 20:54:53;;;;;;;5.23;3.00;;;14.00;96.30;;;;;;4935377;29;20251;-78
2021/06/01 20:57:22;;;;;;;4.10;3.70;;;13.90;96.30;;;;;;4936311;29;20467;-78
2021/06/01 20:59:50;;;;;;;5.20;2.90;;;13.90;96.30;;;;;;4935846;29;20268;-77
2021/06/01 21:02:18;;;;;;;5.80;3.47;;;13.70;96.30;;;;;;4937225;29;20411;-78
2021/06/01 21:04:47;;;;;;;4.73;3.00;;;13.60;96.30;;;;;;4935981;29;20786;-78
2021/06/01 21:07:14;;;;;;;15.03;3.10;;;13.40;96.30;;;;;;4936617;29;20443;-78
2021/06/01 21:09:40;;;;;;;4.20;2.73;;;13.30;96.30;;;;;;4937146;29;20416;-78
2021/06/01 21:12:07;;;;;;;4.33;3.13;;;13.30;96.30;;;;;;4938053;29;20510;-78
2021/06/01 21:14:33;;;;;;;4.43;2.93;;;13.40;96.30;;;;;;4936513;29;20430;-79
2021/06/01 21:16:59;;;;;;;6.33;3.60;;;13.50;96.30;;;;;;4937517;29;20470;-78
2021/06/01 21:19:25;;;;;;;5.43;3.17;;;13.50;96.30;;;;;;4936806;29;20407;-78
2021/06/01 21:21:52;;;;;;;5.03;3.07;;;13.50;96.30;;;;;;4937321;29;20168;-79
2021/06/01 21:24:17;;;;;;;4.13;3.73;;;13.30;96.30;;;;;;4936784;29;20408;-78
2021/06/01 21:26:43;;;;;;;3.77;2.93;;;13.20;96.30;;;;;;4937519;29;20550;-78
2021/06/01 21:29:08;;;;;;;7.50;3.00;;;13.20;96.30;;;;;;4937110;29;20195;-78
2021/06/01 21:32:07;;;;;;;7.93;3.50;;;13.20;96.30;;;;;;4935313;29;20187;-78
2021/06/01 21:34:39;;;;;;;4.40;3.53;;;13.20;96.30;;;;;;4934721;29;20179;-78
2021/06/01 21:37:05;;;;;;;4.73;3.17;;;13.30;96.30;;;;;;4936064;29;20554;-78
2021/06/01 21:39:33;;;;;;;5.30;3.27;;;13.30;96.30;;;;;;4935489;29;20458;-78
2021/06/01 21:42:01;;;;;;;4.03;3.10;;;13.20;96.30;;;;;;4936333;29;20195;-79
2021/06/01 21:44:29;;;;;;;5.73;3.30;;;13.00;96.30;;;;;;4936223;29;20794;-78
2021/06/01 21:47:00;;;;;;;6.50;3.73;;;12.80;96.30;;;;;;4935671;29;20428;-78
2021/06/01 21:49:26;;;;;;;8.10;3.40;;;12.80;96.30;;;;;;4935535;29;20440;-78
2021/06/01 21:51:55;;;;;;;7.20;2.90;;;12.70;96.30;;;;;;4940095;29;20470;-78
2021/06/01 21:54:25;;;;;;;4.77;3.67;;;12.70;96.30;;;;;;4939762;29;20438;-78
2021/06/01 21:56:52;;;;;;;3.80;3.40;;;12.60;96.30;;;;;;4936596;29;20467;-77
2021/06/01 21:59:22;;;;;;;3.83;3.10;;;12.50;96.30;;;;;;4938782;29;20407;-77
2021/06/01 22:01:49;;;;;;;4.27;3.27;;;12.50;96.30;;;;;;4937755;29;20404;-78
2021/06/01 22:04:16;;;;;;;5.80;3.80;;;12.40;96.30;;;;;;4938640;29;20453;-77
2021/06/01 22:06:42;;;;;;;4.60;3.00;;;12.40;96.30;;;;;;4938448;29;20436;-77
2021/06/01 22:09:07;;;;;;;4.60;3.23;;;12.30;96.30;;;;;;4937900;29;20992;-78
2021/06/01 22:11:33;;;;;;;4.47;3.10;;;12.20;96.30;;;;;;4938449;29;20674;-78
2021/06/01 22:13:58;;;;;;;7.63;3.30;;;12.00;96.30;;;;;;4938191;29;20239;-77
2021/06/01 22:16:25;;;;;;;2.80;2.60;;;11.80;96.30;;;;;;4935980;29;20258;-77
2021/06/01 22:18:54;;;;;;;5.93;2.83;;;11.50;96.30;;;;;;4937864;29;20263;-77
2021/06/01 22:21:20;;;;;;;4.73;3.50;;;11.30;96.30;;;;;;4938626;29;20502;-78
2021/06/01 22:23:54;;;;;;;3.83;3.43;;;11.30;96.30;;;;;;4938575;29;20892;-77
2021/06/01 22:26:28;;;;;;;4.63;3.10;;;11.30;96.30;;;;;;4937547;29;20883;-79
2021/06/01 22:28:56;;;;;;;4.83;3.33;;;11.40;96.30;;;;;;4939899;29;20394;-78
2021/06/01 22:31:23;;;;;;;4.20;3.57;;;11.50;96.30;;;;;;4938438;29;20955;-78
2021/06/01 22:33:49;;;;;;;7.00;3.20;;;11.60;96.30;;;;;;4939899;29;20419;-78
2021/06/01 22:36:23;;;;;;;7.80;4.00;;;11.70;96.30;;;;;;4938810;29;20534;-77
2021/06/01 22:38:54;;;;;;;4.73;3.20;;;11.70;96.30;;;;;;4940280;29;20505;-78
2021/06/01 22:41:24;;;;;;;4.97;3.63;;;11.70;96.30;;;;;;4939843;29;20428;-77
2021/06/01 22:43:53;;;;;;;5.90;3.50;;;11.80;96.30;;;;;;4942821;29;20468;-78
2021/06/01 22:46:27;;;;;;;3.77;3.20;;;11.80;96.30;;;;;;4953577;29;20447;-78
2021/06/01 22:48:54;;;;;;;5.90;3.47;;;11.70;96.30;;;;;;4952621;29;20459;-78
2021/06/01 22:51:22;;;;;;;4.67;3.13;;;11.80;96.30;;;;;;4938935;28;20427;-78
2021/06/01 22:53:48;;;;;;;3.90;2.90;;;11.60;96.30;;;;;;4939016;29;20416;-78
2021/06/01 22:56:16;;;;;;;3.43;2.63;;;11.40;96.30;;;;;;4936666;29;20458;-78
2021/06/01 22:58:44;;;;;;;5.47;3.40;;;11.40;96.30;;;;;;4938585;29;20186;-78
2021/06/01 23:01:16;;;;;;;5.57;4.00;;;11.40;96.30;;;;;;4936508;29;20932;-78
2021/06/01 23:03:48;;;;;;;7.43;4.00;;;11.30;96.30;;;;;;4938439;29;20439;-78
2021/06/01 23:06:18;;;;;;;4.80;3.70;;;11.10;96.30;;;;;;4938045;29;20419;-78
2021/06/01 23:08:55;;;;;;;5.83;3.90;;;11.10;96.30;;;;;;4938507;29;20410;-78
2021/06/01 23:11:28;;;;;;;5.13;3.77;;;10.90;96.30;;;;;;4938242;29;20420;-77
2021/06/01 23:13:56;;;;;;;3.73;3.20;;;10.70;96.30;;;;;;4938253;28;20995;-78
2021/06/01 23:16:23;;;;;;;8.77;3.87;;;10.40;96.30;;;;;;4937949;29;20514;-78
2021/06/01 23:18:50;;;;;;;4.40;3.23;;;10.20;96.30;;;;;;4938125;29;20424;-78
2021/06/01 23:21:15;;;;;;;3.47;3.10;;;10.10;96.30;;;;;;4938103;29;20431;-78
2021/06/01 23:23:41;;;;;;;5.43;4.03;;;9.90;96.30;;;;;;4936736;29;20424;-78
2021/06/01 23:26:07;;;;;;;6.60;3.57;;;9.90;96.30;;;;;;4937072;29;20187;-77
2021/06/01 23:28:33;;;;;;;3.87;2.90;;;9.90;96.30;;;;;;4937876;29;20167;-78
2021/06/01 23:30:59;;;;;;;16.33;3.50;;;9.80;96.30;;;;;;4938461;29;20211;-78
2021/06/01 23:33:25;;;;;;;7.80;3.93;;;10.00;96.30;;;;;;4936881;29;20493;-78
2021/06/01 23:35:51;;;;;;;5.13;3.60;;;10.20;96.30;;;;;;4936874;29;20794;-78
2021/06/01 23:38:28;;;;;;;5.60;3.50;;;10.30;96.30;;;;;;4936415;29;20246;-78
2021/06/01 23:40:56;;;;;;;4.50;3.27;;;10.50;96.30;;;;;;4937778;29;20179;-77
2021/06/01 23:43:21;;;;;;;4.87;3.30;;;10.50;96.30;;;;;;4938115;29;20419;-78
2021/06/01 23:45:47;;;;;;;4.23;3.33;;;10.50;96.30;;;;;;4936492;29;20419;-78
2021/06/01 23:50:38;;;;;;;6.77;4.40;;;10.40;96.30;;;;;;4938029;29;20179;-77
2021/06/01 23:53:04;;;;;;;4.97;3.53;;;10.40;96.30;;;;;;4937745;29;20176;-78
2021/06/01 23:55:30;;;;;;;3.63;3.33;;;10.30;96.30;;;;;;4937337;29;20187;-78